createdAt,value
2018-05-01T00:00:56.924Z,995.36
2018-05-01T00:01:56.936Z,995.46
2018-05-01T00:02:56.919Z,995.54
2018-05-01T00:03:56.945Z,995.43
2018-05-01T00:04:56.934Z,995.49
2018-05-01T00:05:56.932Z,995.57
2018-05-01T00:06:56.932Z,995.42
2018-05-01T00:07:56.923Z,995.40
2018-05-01T00:08:56.927Z,995.45
2018-05-01T00:09:56.949Z,995.48
2018-05-01T00:10:56.939Z,995.22
2018-05-01T00:11:56.945Z,995.44
2018-05-01T00:12:56.957Z,995.49
2018-05-01T00:13:56.938Z,995.51
2018-05-01T00:14:56.949Z,995.43
2018-05-01T00:15:57.651Z,995.49
2018-05-01T00:16:56.986Z,995.47
2018-05-01T00:17:56.949Z,995.58
2018-05-01T00:18:56.953Z,995.46
2018-05-01T00:19:56.979Z,995.39
2018-05-01T00:20:57.068Z,995.40
2018-05-01T00:21:57.006Z,995.46
2018-05-01T00:22:56.974Z,995.57
2018-05-01T00:23:56.997Z,995.71
2018-05-01T00:24:56.968Z,995.58
2018-05-01T00:25:56.952Z,995.55
2018-05-01T00:26:56.961Z,995.59
2018-05-01T00:27:56.965Z,995.53
2018-05-01T00:28:56.966Z,995.54
2018-05-01T00:29:56.999Z,995.52
2018-05-01T00:30:56.980Z,995.56
2018-05-01T00:31:56.971Z,995.57
2018-05-01T00:32:56.973Z,995.45
2018-05-01T00:33:56.980Z,995.52
2018-05-01T00:34:56.980Z,995.64
2018-05-01T00:35:56.981Z,995.57
2018-05-01T00:36:56.989Z,995.59
2018-05-01T00:37:56.977Z,995.52
2018-05-01T00:38:57.026Z,995.52
2018-05-01T00:39:56.977Z,995.49
2018-05-01T00:40:57.009Z,995.55
2018-05-01T00:41:56.986Z,995.54
2018-05-01T00:42:56.984Z,995.50
2018-05-01T00:43:56.981Z,995.56
2018-05-01T00:44:56.988Z,995.58
2018-05-01T00:45:56.993Z,995.62
2018-05-01T00:46:56.991Z,995.68
2018-05-01T00:47:56.997Z,995.68
2018-05-01T00:48:56.997Z,995.62
2018-05-01T00:49:56.994Z,995.70
2018-05-01T00:50:57.008Z,995.65
2018-05-01T00:51:57.001Z,995.66
2018-05-01T00:52:56.992Z,995.66
2018-05-01T00:53:57.014Z,995.68
2018-05-01T00:54:57.010Z,995.70
2018-05-01T00:55:57.001Z,995.64
2018-05-01T00:56:57.004Z,995.70
2018-05-01T00:57:57.003Z,995.74
2018-05-01T00:58:57.009Z,995.67
2018-05-01T00:59:57.010Z,995.72
2018-05-01T01:00:57.007Z,995.70
2018-05-01T01:01:57.004Z,995.80
2018-05-01T01:02:57.009Z,995.63
2018-05-01T01:03:57.016Z,995.79
2018-05-01T01:04:57.014Z,995.69
2018-05-01T01:05:57.015Z,995.74
2018-05-01T01:06:57.020Z,995.85
2018-05-01T01:07:57.030Z,995.73
2018-05-01T01:08:57.019Z,995.82
2018-05-01T01:09:57.022Z,995.71
2018-05-01T01:10:57.088Z,995.80
2018-05-01T01:11:57.029Z,995.62
2018-05-01T01:12:57.023Z,995.80
2018-05-01T01:13:57.030Z,995.80
2018-05-01T01:14:57.128Z,995.79
2018-05-01T01:15:57.035Z,995.86
2018-05-01T01:16:57.052Z,996.05
2018-05-01T01:17:57.040Z,995.76
2018-05-01T01:18:57.038Z,995.87
2018-05-01T01:19:57.035Z,995.83
2018-05-01T01:20:57.040Z,995.91
2018-05-01T01:21:57.037Z,995.88
2018-05-01T01:22:57.043Z,995.85
2018-05-01T01:23:57.051Z,996.00
2018-05-01T01:24:57.048Z,995.85
2018-05-01T01:25:57.037Z,995.86
2018-05-01T01:26:57.041Z,995.83
2018-05-01T01:27:57.043Z,995.81
2018-05-01T01:28:57.039Z,995.92
2018-05-01T01:29:57.041Z,995.86
2018-05-01T01:30:57.051Z,995.95
2018-05-01T01:31:57.045Z,995.96
2018-05-01T01:32:57.052Z,995.91
2018-05-01T01:33:57.043Z,995.92
2018-05-01T01:34:57.051Z,995.94
2018-05-01T01:35:57.059Z,995.95
2018-05-01T01:36:57.068Z,995.97
2018-05-01T01:37:57.059Z,995.99
2018-05-01T01:38:57.743Z,995.95
2018-05-01T01:39:57.061Z,995.98
2018-05-01T01:40:57.069Z,996.11
2018-05-01T01:41:57.079Z,996.16
2018-05-01T01:42:57.083Z,995.97
2018-05-01T01:43:57.073Z,996.06
2018-05-01T01:44:57.065Z,995.98
2018-05-01T01:45:57.062Z,995.93
2018-05-01T01:46:57.063Z,996.04
2018-05-01T01:47:57.069Z,996.08
2018-05-01T01:48:57.192Z,996.10
2018-05-01T01:49:57.085Z,996.08
2018-05-01T01:50:57.075Z,996.07
2018-05-01T01:51:57.072Z,996.12
2018-05-01T01:52:57.078Z,996.05
2018-05-01T01:53:57.329Z,996.22
2018-05-01T01:54:57.078Z,996.11
2018-05-01T01:55:57.117Z,996.09
2018-05-01T01:56:57.086Z,996.25
2018-05-01T01:57:57.078Z,996.12
2018-05-01T01:58:57.092Z,996.20
2018-05-01T01:59:57.094Z,996.16
2018-05-01T02:00:57.079Z,996.20
2018-05-01T02:01:57.098Z,996.24
2018-05-01T02:02:57.082Z,996.18
2018-05-01T02:03:57.146Z,996.16
2018-05-01T02:04:57.088Z,996.14
2018-05-01T02:05:57.088Z,996.22
2018-05-01T02:06:57.098Z,996.16
2018-05-01T02:07:57.104Z,996.27
2018-05-01T02:08:57.095Z,996.24
2018-05-01T02:09:57.098Z,996.23
2018-05-01T02:10:57.104Z,996.24
2018-05-01T02:11:57.109Z,996.23
2018-05-01T02:12:57.090Z,996.30
2018-05-01T02:13:57.101Z,996.22
2018-05-01T02:14:57.102Z,996.20
2018-05-01T02:15:57.106Z,996.26
2018-05-01T02:16:57.105Z,996.24
2018-05-01T02:17:57.110Z,996.23
2018-05-01T02:18:57.100Z,996.19
2018-05-01T02:19:57.108Z,996.24
2018-05-01T02:20:57.114Z,996.27
2018-05-01T02:21:57.109Z,996.24
2018-05-01T02:22:57.114Z,996.25
2018-05-01T02:23:57.112Z,996.25
2018-05-01T02:24:57.116Z,996.29
2018-05-01T02:25:57.125Z,996.28
2018-05-01T02:26:57.113Z,996.39
2018-05-01T02:27:57.118Z,996.30
2018-05-01T02:28:57.113Z,996.28
2018-05-01T02:29:57.121Z,996.39
2018-05-01T02:30:57.123Z,996.32
2018-05-01T02:31:57.112Z,996.27
2018-05-01T02:32:57.221Z,996.22
2018-05-01T02:33:57.129Z,996.37
2018-05-01T02:34:57.124Z,996.34
2018-05-01T02:35:57.126Z,996.27
2018-05-01T02:36:57.125Z,996.29
2018-05-01T02:37:57.123Z,996.41
2018-05-01T02:38:57.120Z,996.33
2018-05-01T02:39:57.143Z,996.34
2018-05-01T02:40:57.135Z,996.51
2018-05-01T02:41:57.138Z,996.38
2018-05-01T02:42:57.143Z,996.35
2018-05-01T02:43:57.134Z,996.35
2018-05-01T02:44:57.135Z,996.37
2018-05-01T02:45:57.140Z,996.37
2018-05-01T02:46:57.135Z,996.44
2018-05-01T02:47:57.140Z,996.41
2018-05-01T02:48:57.209Z,996.40
2018-05-01T02:49:57.143Z,996.34
2018-05-01T02:50:57.136Z,996.38
2018-05-01T02:51:57.145Z,996.37
2018-05-01T02:52:57.154Z,996.39
2018-05-01T02:53:57.144Z,996.38
2018-05-01T02:54:57.142Z,996.48
2018-05-01T02:55:57.150Z,996.45
2018-05-01T02:56:57.141Z,996.49
2018-05-01T02:57:57.160Z,996.45
2018-05-01T02:58:57.149Z,996.53
2018-05-01T02:59:57.162Z,996.53
2018-05-01T03:00:57.165Z,996.50
2018-05-01T03:01:57.150Z,996.50
2018-05-01T03:02:57.167Z,996.53
2018-05-01T03:03:57.153Z,996.51
2018-05-01T03:04:57.156Z,996.48
2018-05-01T03:05:57.160Z,996.51
2018-05-01T03:06:57.158Z,996.48
2018-05-01T03:07:57.157Z,996.51
2018-05-01T03:08:57.166Z,996.51
2018-05-01T03:09:57.168Z,996.55
2018-05-01T03:10:57.161Z,996.65
2018-05-01T03:11:57.160Z,996.51
2018-05-01T03:12:57.172Z,996.49
2018-05-01T03:13:57.177Z,996.57
2018-05-01T03:14:57.171Z,996.50
2018-05-01T03:15:57.170Z,996.58
2018-05-01T03:16:57.167Z,996.60
2018-05-01T03:17:57.180Z,996.69
2018-05-01T03:18:57.168Z,996.70
2018-05-01T03:19:57.176Z,996.68
2018-05-01T03:20:57.169Z,996.67
2018-05-01T03:21:57.175Z,996.62
2018-05-01T03:22:57.178Z,996.70
2018-05-01T03:23:57.184Z,996.58
2018-05-01T03:24:57.175Z,996.73
2018-05-01T03:25:57.177Z,996.76
2018-05-01T03:26:57.185Z,996.73
2018-05-01T03:27:57.182Z,996.58
2018-05-01T03:28:57.175Z,996.78
2018-05-01T03:29:57.185Z,996.71
2018-05-01T03:30:58.173Z,996.86
2018-05-01T03:31:57.188Z,996.74
2018-05-01T03:32:57.189Z,996.74
2018-05-01T03:33:57.187Z,996.70
2018-05-01T03:34:57.191Z,996.77
2018-05-01T03:35:57.193Z,996.80
2018-05-01T03:36:57.189Z,996.79
2018-05-01T03:37:57.263Z,996.81
2018-05-01T03:38:57.264Z,996.85
2018-05-01T03:39:57.196Z,996.87
2018-05-01T03:40:57.196Z,996.88
2018-05-01T03:41:57.194Z,996.86
2018-05-01T03:42:57.189Z,996.84
2018-05-01T03:43:57.235Z,996.83
2018-05-01T03:44:57.202Z,997.01
2018-05-01T03:45:57.194Z,997.05
2018-05-01T03:46:57.199Z,996.96
2018-05-01T03:47:57.201Z,997.00
2018-05-01T03:48:57.204Z,996.86
2018-05-01T03:49:57.200Z,997.02
2018-05-01T03:50:57.204Z,997.02
2018-05-01T03:51:57.207Z,996.92
2018-05-01T03:52:57.211Z,996.93
2018-05-01T03:53:57.207Z,997.01
2018-05-01T03:54:57.209Z,997.06
2018-05-01T03:55:57.296Z,997.02
2018-05-01T03:56:57.218Z,997.13
2018-05-01T03:57:57.214Z,997.10
2018-05-01T03:58:57.217Z,997.11
2018-05-01T03:59:57.211Z,997.16
2018-05-01T04:00:57.212Z,997.13
2018-05-01T04:01:57.227Z,997.18
2018-05-01T04:02:57.219Z,997.20
2018-05-01T04:03:57.215Z,997.18
2018-05-01T04:04:57.231Z,997.12
2018-05-01T04:05:57.221Z,997.26
2018-05-01T04:06:57.224Z,997.26
2018-05-01T04:07:57.223Z,997.20
2018-05-01T04:08:57.223Z,997.29
2018-05-01T04:09:57.236Z,997.23
2018-05-01T04:10:57.231Z,997.29
2018-05-01T04:11:57.227Z,997.31
2018-05-01T04:12:57.231Z,997.24
2018-05-01T04:13:57.232Z,997.32
2018-05-01T04:14:57.241Z,997.32
2018-05-01T04:15:57.240Z,997.32
2018-05-01T04:16:57.248Z,997.42
2018-05-01T04:17:57.249Z,997.38
2018-05-01T04:18:57.257Z,997.39
2018-05-01T04:19:57.231Z,997.46
2018-05-01T04:20:57.235Z,997.27
2018-05-01T04:21:57.238Z,997.40
2018-05-01T04:22:57.232Z,997.44
2018-05-01T04:23:57.236Z,997.50
2018-05-01T04:24:57.243Z,997.49
2018-05-01T04:25:57.244Z,997.45
2018-05-01T04:26:57.243Z,997.54
2018-05-01T04:27:57.243Z,997.51
2018-05-01T04:28:57.250Z,997.42
2018-05-01T04:29:57.238Z,997.63
2018-05-01T04:30:57.251Z,997.57
2018-05-01T04:31:57.245Z,997.55
2018-05-01T04:32:57.259Z,997.59
2018-05-01T04:33:57.265Z,997.66
2018-05-01T04:34:57.252Z,997.60
2018-05-01T04:35:57.257Z,997.56
2018-05-01T04:36:57.252Z,997.66
2018-05-01T04:37:57.254Z,997.59
2018-05-01T04:38:57.260Z,997.64
2018-05-01T04:39:57.257Z,997.77
2018-05-01T04:40:57.250Z,997.84
2018-05-01T04:41:57.261Z,997.68
2018-05-01T04:42:57.261Z,997.81
2018-05-01T04:43:57.258Z,997.77
2018-05-01T04:44:57.259Z,997.82
2018-05-01T04:45:58.188Z,997.80
2018-05-01T04:46:57.277Z,997.82
2018-05-01T04:47:57.267Z,997.84
2018-05-01T04:48:57.267Z,997.76
2018-05-01T04:49:57.274Z,997.98
2018-05-01T04:50:57.277Z,997.86
2018-05-01T04:51:57.282Z,997.90
2018-05-01T04:52:57.273Z,997.97
2018-05-01T04:53:57.283Z,997.93
2018-05-01T04:54:57.269Z,997.99
2018-05-01T04:55:57.267Z,998.04
2018-05-01T04:56:57.270Z,998.03
2018-05-01T04:57:57.279Z,998.06
2018-05-01T04:58:57.270Z,998.08
2018-05-01T04:59:57.278Z,998.13
2018-05-01T05:00:57.275Z,998.20
2018-05-01T05:01:57.281Z,998.17
2018-05-01T05:02:57.290Z,998.19
2018-05-01T05:03:57.272Z,998.26
2018-05-01T05:04:57.277Z,998.22
2018-05-01T05:05:57.288Z,998.27
2018-05-01T05:06:57.284Z,998.23
2018-05-01T05:07:57.300Z,998.35
2018-05-01T05:08:57.281Z,998.28
2018-05-01T05:09:57.283Z,998.34
2018-05-01T05:10:57.295Z,998.32
2018-05-01T05:11:57.283Z,998.37
2018-05-01T05:12:57.284Z,998.40
2018-05-01T05:13:57.288Z,998.45
2018-05-01T05:14:58.195Z,998.44
2018-05-01T05:15:57.333Z,998.49
2018-05-01T05:16:57.328Z,998.47
2018-05-01T05:17:57.292Z,998.43
2018-05-01T05:18:57.298Z,998.53
2018-05-01T05:19:57.292Z,998.60
2018-05-01T05:20:57.298Z,998.57
2018-05-01T05:21:57.300Z,998.57
2018-05-01T05:22:57.303Z,998.56
2018-05-01T05:23:57.307Z,998.67
2018-05-01T05:24:57.292Z,998.56
2018-05-01T05:25:57.302Z,998.73
2018-05-01T05:26:57.300Z,998.73
2018-05-01T05:27:57.307Z,998.70
2018-05-01T05:28:57.301Z,998.76
2018-05-01T05:29:57.305Z,998.67
2018-05-01T05:30:57.300Z,998.75
2018-05-01T05:31:57.315Z,998.78
2018-05-01T05:32:57.315Z,998.85
2018-05-01T05:33:57.316Z,998.80
2018-05-01T05:34:57.311Z,998.85
2018-05-01T05:35:57.308Z,998.83
2018-05-01T05:36:57.323Z,998.94
2018-05-01T05:37:57.308Z,998.92
2018-05-01T05:38:57.313Z,998.95
2018-05-01T05:39:57.312Z,998.92
2018-05-01T05:40:57.319Z,998.87
2018-05-01T05:41:57.326Z,998.99
2018-05-01T05:42:57.317Z,998.98
2018-05-01T05:43:57.322Z,999.02
2018-05-01T05:44:57.320Z,999.15
2018-05-01T05:45:57.323Z,999.00
2018-05-01T05:46:57.317Z,998.99
2018-05-01T05:47:57.330Z,999.09
2018-05-01T05:48:57.410Z,999.11
2018-05-01T05:49:57.337Z,998.99
2018-05-01T05:50:57.328Z,999.08
2018-05-01T05:51:57.324Z,999.16
2018-05-01T05:52:57.324Z,999.31
2018-05-01T05:53:57.334Z,999.27
2018-05-01T05:54:57.345Z,999.14
2018-05-01T05:55:57.348Z,999.10
2018-05-01T05:56:57.353Z,999.22
2018-05-01T05:57:57.341Z,999.37
2018-05-01T05:58:57.364Z,999.28
2018-05-01T05:59:57.343Z,999.38
2018-05-01T06:00:57.349Z,999.35
2018-05-01T06:01:58.211Z,999.39
2018-05-01T06:02:57.340Z,999.43
2018-05-01T06:03:57.394Z,999.51
2018-05-01T06:04:57.340Z,999.46
2018-05-01T06:05:57.353Z,999.52
2018-05-01T06:06:57.348Z,999.53
2018-05-01T06:07:57.382Z,999.59
2018-05-01T06:08:57.352Z,999.57
2018-05-01T06:09:57.360Z,999.54
2018-05-01T06:10:57.364Z,999.59
2018-05-01T06:11:57.357Z,999.65
2018-05-01T06:12:57.354Z,999.66
2018-05-01T06:13:57.350Z,999.70
2018-05-01T06:14:57.369Z,999.69
2018-05-01T06:15:57.368Z,999.69
2018-05-01T06:16:57.356Z,999.72
2018-05-01T06:17:57.382Z,999.70
2018-05-01T06:18:57.368Z,999.70
2018-05-01T06:19:57.376Z,999.72
2018-05-01T06:20:57.436Z,999.73
2018-05-01T06:21:57.421Z,999.75
2018-05-01T06:22:57.360Z,999.69
2018-05-01T06:23:57.369Z,999.71
2018-05-01T06:24:57.368Z,999.71
2018-05-01T06:25:57.364Z,999.84
2018-05-01T06:26:57.365Z,999.75
2018-05-01T06:27:57.372Z,999.80
2018-05-01T06:28:57.377Z,999.87
2018-05-01T06:29:57.370Z,999.81
2018-05-01T06:30:57.463Z,999.90
2018-05-01T06:31:57.382Z,999.92
2018-05-01T06:32:57.386Z,999.94
2018-05-01T06:33:57.378Z,999.97
2018-05-01T06:34:57.378Z,1000.05
2018-05-01T06:35:57.389Z,999.94
2018-05-01T06:36:57.404Z,1000.05
2018-05-01T06:37:57.385Z,999.97
2018-05-01T06:38:57.385Z,1000.00
2018-05-01T06:39:57.394Z,1000.09
2018-05-01T06:40:57.382Z,1000.05
2018-05-01T06:41:57.385Z,1000.13
2018-05-01T06:42:57.388Z,1000.08
2018-05-01T06:43:57.392Z,1000.22
2018-05-01T06:44:57.387Z,1000.14
2018-05-01T06:45:57.394Z,1000.19
2018-05-01T06:46:57.383Z,1000.16
2018-05-01T06:47:57.390Z,1000.21
2018-05-01T06:48:57.403Z,1000.27
2018-05-01T06:49:58.217Z,1000.33
2018-05-01T06:50:57.396Z,1000.28
2018-05-01T06:51:57.399Z,1000.33
2018-05-01T06:52:57.406Z,1000.38
2018-05-01T06:53:57.392Z,1000.45
2018-05-01T06:54:57.404Z,1000.39
2018-05-01T06:55:57.398Z,1000.42
2018-05-01T06:56:57.399Z,1000.46
2018-05-01T06:57:57.398Z,1000.53
2018-05-01T06:58:57.449Z,1000.52
2018-05-01T06:59:57.413Z,1000.60
2018-05-01T07:00:57.404Z,1000.58
2018-05-01T07:01:57.408Z,1000.64
2018-05-01T07:02:57.405Z,1000.69
2018-05-01T07:03:57.425Z,1000.60
2018-05-01T07:04:57.426Z,1000.60
2018-05-01T07:05:57.415Z,1000.71
2018-05-01T07:06:57.422Z,1000.76
2018-05-01T07:07:57.431Z,1000.68
2018-05-01T07:08:57.415Z,1000.76
2018-05-01T07:09:57.444Z,1000.78
2018-05-01T07:10:57.410Z,1000.81
2018-05-01T07:11:57.431Z,1000.75
2018-05-01T07:12:57.417Z,1000.80
2018-05-01T07:13:57.444Z,1000.85
2018-05-01T07:14:57.424Z,1000.80
2018-05-01T07:15:57.426Z,1000.82
2018-05-01T07:16:57.424Z,1000.85
2018-05-01T07:17:57.435Z,1000.90
2018-05-01T07:18:57.432Z,1000.96
2018-05-01T07:19:57.426Z,1000.93
2018-05-01T07:20:57.446Z,1000.89
2018-05-01T07:21:57.432Z,1000.90
2018-05-01T07:22:57.441Z,1000.96
2018-05-01T07:23:57.438Z,1001.03
2018-05-01T07:24:57.451Z,1000.99
2018-05-01T07:25:57.432Z,1001.07
2018-05-01T07:26:57.437Z,1001.01
2018-05-01T07:27:57.441Z,1001.15
2018-05-01T07:28:57.457Z,1000.96
2018-05-01T07:29:57.441Z,1001.08
2018-05-01T07:30:57.443Z,1001.07
2018-05-01T07:31:57.449Z,1001.13
2018-05-01T07:32:57.445Z,1001.12
2018-05-01T07:33:57.454Z,1001.17
2018-05-01T07:34:57.453Z,1001.13
2018-05-01T07:35:57.461Z,1001.18
2018-05-01T07:36:57.462Z,1001.21
2018-05-01T07:37:57.449Z,1001.24
2018-05-01T07:38:57.452Z,1001.20
2018-05-01T07:39:57.470Z,1001.28
2018-05-01T07:40:57.465Z,1001.33
2018-05-01T07:41:57.470Z,1001.26
2018-05-01T07:42:57.479Z,1001.29
2018-05-01T07:43:57.521Z,1001.28
2018-05-01T07:44:57.484Z,1001.34
2018-05-01T07:45:57.481Z,1001.43
2018-05-01T07:46:57.471Z,1001.37
2018-05-01T07:47:57.493Z,1001.22
2018-05-01T07:48:57.484Z,1001.46
2018-05-01T07:49:57.473Z,1001.35
2018-05-01T07:50:57.484Z,1001.32
2018-05-01T07:51:57.480Z,1001.39
2018-05-01T07:52:57.484Z,1001.48
2018-05-01T07:53:57.490Z,1001.40
2018-05-01T07:54:57.495Z,1001.52
2018-05-01T07:55:57.480Z,1001.51
2018-05-01T07:56:57.483Z,1001.54
2018-05-01T07:57:57.483Z,1001.54
2018-05-01T07:58:57.494Z,1001.54
2018-05-01T07:59:57.493Z,1001.56
2018-05-01T08:00:57.489Z,1001.54
2018-05-01T08:01:57.495Z,1001.60
2018-05-01T08:02:57.505Z,1001.62
2018-05-01T08:03:57.602Z,1001.64
2018-05-01T08:04:57.498Z,1001.71
2018-05-01T08:05:57.511Z,1001.70
2018-05-01T08:06:57.520Z,1001.69
2018-05-01T08:07:57.497Z,1001.75
2018-05-01T08:08:57.502Z,1001.67
2018-05-01T08:09:57.498Z,1001.74
2018-05-01T08:10:57.500Z,1001.74
2018-05-01T08:11:57.512Z,1001.74
2018-05-01T08:12:57.505Z,1001.85
2018-05-01T08:13:57.503Z,1001.83
2018-05-01T08:14:57.506Z,1001.88
2018-05-01T08:15:57.511Z,1001.87
2018-05-01T08:16:57.518Z,1001.81
2018-05-01T08:17:57.590Z,1001.88
2018-05-01T08:18:57.521Z,1001.92
2018-05-01T08:19:57.513Z,1001.93
2018-05-01T08:20:57.534Z,1002.03
2018-05-01T08:21:57.560Z,1002.06
2018-05-01T08:22:57.523Z,1002.01
2018-05-01T08:23:57.535Z,1001.95
2018-05-01T08:24:57.524Z,1001.98
2018-05-01T08:25:57.526Z,1001.90
2018-05-01T08:26:57.525Z,1001.96
2018-05-01T08:27:57.565Z,1002.03
2018-05-01T08:28:57.565Z,1002.06
2018-05-01T08:29:57.568Z,1002.02
2018-05-01T08:30:57.543Z,1002.04
2018-05-01T08:31:57.531Z,1002.11
2018-05-01T08:32:57.529Z,1002.16
2018-05-01T08:33:57.559Z,1002.06
2018-05-01T08:34:57.545Z,1002.19
2018-05-01T08:35:57.541Z,1002.18
2018-05-01T08:36:57.540Z,1002.18
2018-05-01T08:37:57.534Z,1002.28
2018-05-01T08:38:57.568Z,1002.26
2018-05-01T08:39:57.559Z,1002.18
2018-05-01T08:40:57.567Z,1002.23
2018-05-01T08:41:57.564Z,1002.24
2018-05-01T08:42:57.553Z,1002.38
2018-05-01T08:43:57.580Z,1002.32
2018-05-01T08:44:57.574Z,1002.38
2018-05-01T08:45:57.576Z,1002.33
2018-05-01T08:46:57.573Z,1002.37
2018-05-01T08:47:57.567Z,1002.53
2018-05-01T08:48:57.560Z,1002.44
2018-05-01T08:49:57.564Z,1002.43
2018-05-01T08:50:57.621Z,1002.53
2018-05-01T08:51:57.574Z,1002.47
2018-05-01T08:52:57.589Z,1002.46
2018-05-01T08:53:57.575Z,1002.48
2018-05-01T08:54:57.565Z,1002.57
2018-05-01T08:55:57.579Z,1002.64
2018-05-01T08:56:57.580Z,1002.77
2018-05-01T08:57:57.588Z,1002.63
2018-05-01T08:58:57.576Z,1002.63
2018-05-01T08:59:57.584Z,1002.79
2018-05-01T09:00:57.585Z,1002.87
2018-05-01T09:01:57.603Z,1002.71
2018-05-01T09:02:57.596Z,1002.76
2018-05-01T09:03:57.604Z,1002.79
2018-05-01T09:04:57.604Z,1002.81
2018-05-01T09:05:57.624Z,1002.83
2018-05-01T09:06:57.597Z,1002.95
2018-05-01T09:07:57.624Z,1002.81
2018-05-01T09:08:57.599Z,1002.84
2018-05-01T09:09:57.607Z,1002.87
2018-05-01T09:10:57.603Z,1002.91
2018-05-01T09:11:57.599Z,1002.84
2018-05-01T09:12:57.611Z,1002.89
2018-05-01T09:13:57.616Z,1002.96
2018-05-01T09:14:57.613Z,1002.95
2018-05-01T09:15:57.622Z,1003.00
2018-05-01T09:16:57.677Z,1003.02
2018-05-01T09:17:57.725Z,1002.97
2018-05-01T09:18:57.623Z,1003.10
2018-05-01T09:19:57.632Z,1003.03
2018-05-01T09:20:57.645Z,1003.11
2018-05-01T09:21:57.640Z,1003.05
2018-05-01T09:22:57.662Z,1003.08
2018-05-01T09:23:57.661Z,1003.10
2018-05-01T09:24:57.664Z,1003.17
2018-05-01T09:25:57.636Z,1003.14
2018-05-01T09:26:57.688Z,1003.13
2018-05-01T09:27:57.655Z,1003.20
2018-05-01T09:28:57.652Z,1003.30
2018-05-01T09:29:57.667Z,1003.25
2018-05-01T09:30:57.730Z,1003.19
2018-05-01T09:31:57.662Z,1003.16
2018-05-01T09:32:57.708Z,1003.26
2018-05-01T09:33:57.658Z,1003.27
2018-05-01T09:34:57.675Z,1003.36
2018-05-01T09:35:57.675Z,1003.28
2018-05-01T09:36:57.665Z,1003.33
2018-05-01T09:37:57.710Z,1003.30
2018-05-01T09:38:57.671Z,1003.39
2018-05-01T09:39:57.666Z,1003.45
2018-05-01T09:40:57.693Z,1003.48
2018-05-01T09:41:57.686Z,1003.50
2018-05-01T09:42:57.681Z,1003.51
2018-05-01T09:43:57.695Z,1003.54
2018-05-01T09:44:57.694Z,1003.63
2018-05-01T09:45:57.716Z,1003.51
2018-05-01T09:46:57.683Z,1003.56
2018-05-01T09:47:57.704Z,1003.67
2018-05-01T09:48:57.696Z,1003.75
2018-05-01T09:49:57.732Z,1003.62
2018-05-01T09:50:57.699Z,1003.68
2018-05-01T09:51:57.718Z,1003.73
2018-05-01T09:52:57.702Z,1003.62
2018-05-01T09:53:57.710Z,1003.71
2018-05-01T09:54:57.716Z,1003.64
2018-05-01T09:55:57.734Z,1003.62
2018-05-01T09:56:57.726Z,1003.58
2018-05-01T09:57:57.719Z,1003.64
2018-05-01T09:58:57.727Z,1003.52
2018-05-01T09:59:57.744Z,1003.55
2018-05-01T10:00:57.815Z,1003.64
2018-05-01T10:01:58.290Z,1003.60
2018-05-01T10:02:57.741Z,1003.60
2018-05-01T10:03:57.749Z,1003.72
2018-05-01T10:04:57.749Z,1003.67
2018-05-01T10:05:57.761Z,1003.67
2018-05-01T10:06:57.771Z,1003.80
2018-05-01T10:07:57.823Z,1003.57
2018-05-01T10:08:57.771Z,1003.62
2018-05-01T10:09:57.763Z,1003.62
2018-05-01T10:10:57.777Z,1003.62
2018-05-01T10:11:57.857Z,1003.67
2018-05-01T10:12:57.810Z,1003.68
2018-05-01T10:13:57.798Z,1003.67
2018-05-01T10:14:57.807Z,1003.74
2018-05-01T10:15:57.803Z,1003.75
2018-05-01T10:16:57.818Z,1003.69
2018-05-01T10:17:57.814Z,1003.69
2018-05-01T10:18:57.811Z,1003.62
2018-05-01T10:19:57.830Z,1003.71
2018-05-01T10:20:57.837Z,1003.74
2018-05-01T10:21:57.812Z,1003.77
2018-05-01T10:22:57.833Z,1003.88
2018-05-01T10:23:57.837Z,1003.68
2018-05-01T10:24:57.822Z,1003.83
2018-05-01T10:25:57.847Z,1003.82
2018-05-01T10:26:57.861Z,1003.95
2018-05-01T10:27:57.878Z,1004.02
2018-05-01T10:28:57.869Z,1003.79
2018-05-01T10:29:57.860Z,1003.80
2018-05-01T10:30:57.892Z,1003.79
2018-05-01T10:31:57.869Z,1003.83
2018-05-01T10:32:57.865Z,1004.00
2018-05-01T10:33:57.977Z,1003.88
2018-05-01T10:34:57.894Z,1003.95
2018-05-01T10:35:57.899Z,1003.91
2018-05-01T10:36:57.886Z,1003.94
2018-05-01T10:37:57.904Z,1004.06
2018-05-01T10:38:57.990Z,1003.92
2018-05-01T10:39:57.898Z,1003.91
2018-05-01T10:40:58.057Z,1003.93
2018-05-01T10:41:57.910Z,1004.02
2018-05-01T10:42:58.051Z,1004.01
2018-05-01T10:43:57.915Z,1003.96
2018-05-01T10:44:57.926Z,1004.06
2018-05-01T10:45:57.939Z,1004.14
2018-05-01T10:46:57.926Z,1004.05
2018-05-01T10:47:57.927Z,1003.99
2018-05-01T10:48:57.928Z,1004.03
2018-05-01T10:49:57.927Z,1004.14
2018-05-01T10:50:57.950Z,1004.02
2018-05-01T10:51:57.950Z,1004.08
2018-05-01T10:52:57.943Z,1004.10
2018-05-01T10:53:58.005Z,1004.09
2018-05-01T10:54:57.983Z,1004.08
2018-05-01T10:55:58.000Z,1004.08
2018-05-01T10:56:58.025Z,1004.11
2018-05-01T10:57:57.985Z,1004.09
2018-05-01T10:58:57.965Z,1004.14
2018-05-01T10:59:58.006Z,1004.24
2018-05-01T11:00:58.324Z,1004.18
2018-05-01T11:01:58.041Z,1004.11
2018-05-01T11:02:58.036Z,1004.14
2018-05-01T11:03:58.105Z,1004.12
2018-05-01T11:04:58.039Z,1004.21
2018-05-01T11:05:58.016Z,1004.17
2018-05-01T11:06:58.028Z,1004.10
2018-05-01T11:07:58.027Z,1004.27
2018-05-01T11:08:58.037Z,1004.19
2018-05-01T11:09:58.073Z,1004.19
2018-05-01T11:10:58.035Z,1004.27
2018-05-01T11:11:58.083Z,1004.22
2018-05-01T11:12:58.039Z,1004.32
2018-05-01T11:13:58.045Z,1004.19
2018-05-01T11:14:58.066Z,1004.28
2018-05-01T11:15:58.075Z,1004.31
2018-05-01T11:16:58.058Z,1004.38
2018-05-01T11:17:58.065Z,1004.38
2018-05-01T11:18:58.077Z,1004.36
2018-05-01T11:19:58.107Z,1004.42
2018-05-01T11:20:58.093Z,1004.35
2018-05-01T11:21:58.097Z,1004.46
2018-05-01T11:22:58.133Z,1004.53
2018-05-01T11:23:58.142Z,1004.42
2018-05-01T11:24:58.218Z,1004.52
2018-05-01T11:25:58.330Z,1004.64
2018-05-01T11:26:58.221Z,1004.51
2018-05-01T11:27:58.208Z,1004.52
2018-05-01T11:28:58.170Z,1004.47
2018-05-01T11:29:58.118Z,1004.55
2018-05-01T11:30:58.127Z,1004.53
2018-05-01T11:31:58.134Z,1004.45
2018-05-01T11:32:58.133Z,1004.48
2018-05-01T11:33:58.156Z,1004.49
2018-05-01T11:34:58.147Z,1004.48
2018-05-01T11:35:58.142Z,1004.53
2018-05-01T11:36:58.154Z,1004.44
2018-05-01T11:37:58.166Z,1004.61
2018-05-01T11:38:58.167Z,1004.60
2018-05-01T11:39:58.170Z,1004.64
2018-05-01T11:40:58.188Z,1004.69
2018-05-01T11:41:58.186Z,1004.64
2018-05-01T11:42:58.186Z,1004.65
2018-05-01T11:43:58.266Z,1004.68
2018-05-01T11:44:58.240Z,1004.70
2018-05-01T11:45:58.209Z,1004.64
2018-05-01T11:46:58.236Z,1004.71
2018-05-01T11:47:58.211Z,1004.75
2018-05-01T11:48:58.235Z,1004.66
2018-05-01T11:49:58.261Z,1004.69
2018-05-01T11:50:58.240Z,1004.64
2018-05-01T11:51:58.238Z,1004.74
2018-05-01T11:52:58.250Z,1004.76
2018-05-01T11:53:58.232Z,1004.73
2018-05-01T11:54:58.253Z,1004.86
2018-05-01T11:55:58.251Z,1004.68
2018-05-01T11:56:58.286Z,1004.68
2018-05-01T11:57:58.256Z,1004.72
2018-05-01T11:58:58.267Z,1004.86
2018-05-01T11:59:58.259Z,1004.78
2018-05-01T12:00:58.270Z,1004.78
2018-05-01T12:01:58.298Z,1004.76
2018-05-01T12:02:58.284Z,1004.78
2018-05-01T12:03:58.285Z,1004.85
2018-05-01T12:04:58.297Z,1004.77
2018-05-01T12:05:58.289Z,1004.85
2018-05-01T12:06:58.297Z,1004.81
2018-05-01T12:07:58.310Z,1004.96
2018-05-01T12:08:58.309Z,1004.94
2018-05-01T12:09:58.316Z,1004.93
2018-05-01T12:10:58.322Z,1004.95
2018-05-01T12:11:58.328Z,1004.97
2018-05-01T12:12:58.345Z,1004.94
2018-05-01T12:13:58.340Z,1005.02
2018-05-01T12:14:58.336Z,1005.05
2018-05-01T12:15:58.347Z,1005.03
2018-05-01T12:16:58.353Z,1005.07
2018-05-01T12:17:58.350Z,1004.94